sensor_id;sensor_type;location;lat;lon;timestamp;pressure;altitude;pressure_sealevel;temperature;humidity
19526;BME280;9907;42.676;26.348;2023-02-19T00:01:54;98985.63;;;10.20;57.09
19526;BME280;9907;42.676;26.348;2023-02-19T00:04:26;98981.06;;;10.01;57.80
19526;BME280;9907;42.676;26.348;2023-02-19T00:06:51;98985.91;;;10.17;57.46
19526;BME280;9907;42.676;26.348;2023-02-19T00:09:18;98976.13;;;9.97;57.55
19526;BME280;9907;42.676;26.348;2023-02-19T00:11:47;98976.88;;;10.08;57.82
19526;BME280;9907;42.676;26.348;2023-02-19T00:14:19;98973.88;;;10.02;57.71
19526;BME280;9907;42.676;26.348;2023-02-19T00:16:44;98970.91;;;9.86;58.60
19526;BME280;9907;42.676;26.348;2023-02-19T00:19:16;98984.00;;;9.98;58.03
19526;BME280;9907;42.676;26.348;2023-02-19T00:21:49;98979.56;;;9.78;58.72
19526;BME280;9907;42.676;26.348;2023-02-19T00:24:17;98974.34;;;9.76;58.43
19526;BME280;9907;42.676;26.348;2023-02-19T00:26:44;98973.38;;;9.77;58.76
19526;BME280;9907;42.676;26.348;2023-02-19T00:29:18;98979.75;;;9.86;58.47
19526;BME280;9907;42.676;26.348;2023-02-19T00:31:44;98976.63;;;9.81;58.75
19526;BME280;9907;42.676;26.348;2023-02-19T00:34:11;98971.69;;;9.76;59.25
19526;BME280;9907;42.676;26.348;2023-02-19T00:36:39;98973.09;;;9.71;58.71
19526;BME280;9907;42.676;26.348;2023-02-19T00:39:06;98970.25;;;9.72;59.01
19526;BME280;9907;42.676;26.348;2023-02-19T00:41:32;98967.88;;;9.69;59.11
19526;BME280;9907;42.676;26.348;2023-02-19T00:43:59;98965.03;;;9.61;59.54
19526;BME280;9907;42.676;26.348;2023-02-19T00:48:58;98963.78;;;9.65;59.24
19526;BME280;9907;42.676;26.348;2023-02-19T00:51:27;98961.84;;;9.67;59.81
19526;BME280;9907;42.676;26.348;2023-02-19T00:53:53;98959.94;;;9.58;59.90
19526;BME280;9907;42.676;26.348;2023-02-19T00:56:21;98957.19;;;9.39;59.96
19526;BME280;9907;42.676;26.348;2023-02-19T00:58:49;98955.09;;;9.43;60.44
19526;BME280;9907;42.676;26.348;2023-02-19T01:01:18;98947.44;;;9.49;60.19
19526;BME280;9907;42.676;26.348;2023-02-19T01:03:44;98944.78;;;9.49;60.03
19526;BME280;9907;42.676;26.348;2023-02-19T01:06:13;98946.44;;;9.50;59.98
19526;BME280;9907;42.676;26.348;2023-02-19T01:08:41;98936.28;;;9.35;60.25
19526;BME280;9907;42.676;26.348;2023-02-19T01:11:07;98927.44;;;9.34;59.90
19526;BME280;9907;42.676;26.348;2023-02-19T01:13:34;98942.00;;;9.30;59.75
19526;BME280;9907;42.676;26.348;2023-02-19T01:18:33;98930.44;;;8.99;60.54
19526;BME280;9907;42.676;26.348;2023-02-19T01:21:05;98915.34;;;9.09;60.20
19526;BME280;9907;42.676;26.348;2023-02-19T01:23:31;98914.19;;;9.02;60.79
19526;BME280;9907;42.676;26.348;2023-02-19T01:25:56;98925.69;;;9.03;61.01
19526;BME280;9907;42.676;26.348;2023-02-19T01:28:22;98911.41;;;9.04;60.71
19526;BME280;9907;42.676;26.348;2023-02-19T01:30:47;98916.06;;;9.11;60.33
19526;BME280;9907;42.676;26.348;2023-02-19T01:33:13;98913.72;;;9.18;60.52
19526;BME280;9907;42.676;26.348;2023-02-19T01:35:38;98916.00;;;9.22;60.15
19526;BME280;9907;42.676;26.348;2023-02-19T01:38:07;98920.94;;;9.06;60.87
19526;BME280;9907;42.676;26.348;2023-02-19T01:40:33;98919.59;;;9.12;60.57
19526;BME280;9907;42.676;26.348;2023-02-19T01:42:58;98917.25;;;8.98;60.89
19526;BME280;9907;42.676;26.348;2023-02-19T01:45:30;98925.06;;;8.90;61.04
19526;BME280;9907;42.676;26.348;2023-02-19T01:48:31;98913.25;;;9.13;60.95
19526;BME280;9907;42.676;26.348;2023-02-19T01:50:59;98912.94;;;9.06;61.07
19526;BME280;9907;42.676;26.348;2023-02-19T01:53:30;98916.31;;;8.88;61.57
19526;BME280;9907;42.676;26.348;2023-02-19T01:55:58;98901.47;;;8.85;61.35
19526;BME280;9907;42.676;26.348;2023-02-19T01:58:27;98914.47;;;8.78;61.62
19526;BME280;9907;42.676;26.348;2023-02-19T02:00:54;98911.31;;;8.73;62.05
19526;BME280;9907;42.676;26.348;2023-02-19T02:03:25;98910.09;;;8.77;62.41
19526;BME280;9907;42.676;26.348;2023-02-19T02:06:23;98894.06;;;8.89;61.54
19526;BME280;9907;42.676;26.348;2023-02-19T02:08:57;98899.19;;;8.80;61.92
19526;BME280;9907;42.676;26.348;2023-02-19T02:11:49;98904.31;;;8.93;61.59
19526;BME280;9907;42.676;26.348;2023-02-19T02:14:23;98903.47;;;8.72;62.19
19526;BME280;9907;42.676;26.348;2023-02-19T02:22:43;98905.78;;;8.65;63.22
19526;BME280;9907;42.676;26.348;2023-02-19T02:30:41;98901.25;;;8.56;63.94
19526;BME280;9907;42.676;26.348;2023-02-19T02:33:12;98913.72;;;8.56;63.91
19526;BME280;9907;42.676;26.348;2023-02-19T02:36:19;98912.88;;;8.55;63.87
19526;BME280;9907;42.676;26.348;2023-02-19T02:38:46;98914.31;;;8.59;64.48
19526;BME280;9907;42.676;26.348;2023-02-19T02:41:17;98910.22;;;8.76;63.30
19526;BME280;9907;42.676;26.348;2023-02-19T02:43:45;98908.91;;;8.50;65.13
19526;BME280;9907;42.676;26.348;2023-02-19T02:46:18;98923.22;;;8.38;65.97
19526;BME280;9907;42.676;26.348;2023-02-19T02:49:04;98930.09;;;8.40;65.10
19526;BME280;9907;42.676;26.348;2023-02-19T02:51:38;98927.63;;;8.59;64.45
19526;BME280;9907;42.676;26.348;2023-02-19T02:54:13;98922.75;;;8.21;66.43
19526;BME280;9907;42.676;26.348;2023-02-19T02:56:59;98935.81;;;8.13;67.31
19526;BME280;9907;42.676;26.348;2023-02-19T02:59:30;98937.19;;;8.08;67.64
19526;BME280;9907;42.676;26.348;2023-02-19T03:02:02;98944.19;;;8.20;66.79
19526;BME280;9907;42.676;26.348;2023-02-19T03:08:01;98944.81;;;8.01;68.73
19526;BME280;9907;42.676;26.348;2023-02-19T03:13:46;98942.22;;;8.22;68.15
19526;BME280;9907;42.676;26.348;2023-02-19T03:16:33;98961.09;;;8.19;68.90
19526;BME280;9907;42.676;26.348;2023-02-19T03:19:20;98948.75;;;8.18;67.86
19526;BME280;9907;42.676;26.348;2023-02-19T03:24:41;98961.22;;;8.17;67.80
19526;BME280;9907;42.676;26.348;2023-02-19T03:27:27;98962.56;;;8.23;68.26
19526;BME280;9907;42.676;26.348;2023-02-19T03:29:58;98957.47;;;8.20;67.33
19526;BME280;9907;42.676;26.348;2023-02-19T03:32:33;98963.25;;;8.25;67.12
19526;BME280;9907;42.676;26.348;2023-02-19T03:35:05;98964.88;;;8.05;68.04
19526;BME280;9907;42.676;26.348;2023-02-19T03:37:40;98963.56;;;8.00;68.72
19526;BME280;9907;42.676;26.348;2023-02-19T03:40:11;98965.34;;;8.10;68.84
19526;BME280;9907;42.676;26.348;2023-02-19T03:50:47;98959.94;;;8.01;68.96
19526;BME280;9907;42.676;26.348;2023-02-19T03:53:30;98962.72;;;7.88;69.27
19526;BME280;9907;42.676;26.348;2023-02-19T03:56:12;98967.06;;;7.89;69.32
19526;BME280;9907;42.676;26.348;2023-02-19T03:58:47;98967.19;;;7.88;69.94
19526;BME280;9907;42.676;26.348;2023-02-19T04:01:23;98978.91;;;7.85;70.34
19526;BME280;9907;42.676;26.348;2023-02-19T04:04:00;98984.59;;;7.80;70.22
19526;BME280;9907;42.676;26.348;2023-02-19T04:06:33;98994.03;;;7.84;70.30
19526;BME280;9907;42.676;26.348;2023-02-19T04:09:03;98994.75;;;7.87;69.63
19526;BME280;9907;42.676;26.348;2023-02-19T04:11:34;99013.50;;;7.85;70.26
19526;BME280;9907;42.676;26.348;2023-02-19T04:14:15;98981.69;;;7.95;68.96
19526;BME280;9907;42.676;26.348;2023-02-19T04:16:49;98968.38;;;7.61;70.83
19526;BME280;9907;42.676;26.348;2023-02-19T04:19:20;98985.09;;;7.63;71.59
19526;BME280;9907;42.676;26.348;2023-02-19T04:21:49;98994.50;;;7.56;71.49
19526;BME280;9907;42.676;26.348;2023-02-19T04:24:37;98995.97;;;7.49;71.83
19526;BME280;9907;42.676;26.348;2023-02-19T04:27:05;98993.41;;;7.70;70.64
19526;BME280;9907;42.676;26.348;2023-02-19T04:29:31;98994.50;;;7.67;70.57
19526;BME280;9907;42.676;26.348;2023-02-19T04:31:57;98986.78;;;7.64;70.72
19526;BME280;9907;42.676;26.348;2023-02-19T04:34:22;98990.50;;;7.62;70.43
19526;BME280;9907;42.676;26.348;2023-02-19T04:36:48;99003.94;;;7.82;69.44
19526;BME280;9907;42.676;26.348;2023-02-19T04:39:13;98995.38;;;7.90;68.98
19526;BME280;9907;42.676;26.348;2023-02-19T04:41:39;99004.81;;;7.72;69.66
19526;BME280;9907;42.676;26.348;2023-02-19T04:44:07;98997.63;;;7.72;70.25
19526;BME280;9907;42.676;26.348;2023-02-19T04:46:32;98991.09;;;7.54;71.00
19526;BME280;9907;42.676;26.348;2023-02-19T04:48:58;98985.56;;;7.57;70.30
19526;BME280;9907;42.676;26.348;2023-02-19T04:51:23;98986.41;;;7.58;70.55
19526;BME280;9907;42.676;26.348;2023-02-19T04:53:49;98999.94;;;7.66;70.00
19526;BME280;9907;42.676;26.348;2023-02-19T04:56:16;99008.06;;;7.64;70.33
19526;BME280;9907;42.676;26.348;2023-02-19T04:58:44;99009.13;;;7.73;69.63
19526;BME280;9907;42.676;26.348;2023-02-19T05:01:10;99011.41;;;7.44;71.39
19526;BME280;9907;42.676;26.348;2023-02-19T05:03:42;99021.56;;;7.61;70.37
19526;BME280;9907;42.676;26.348;2023-02-19T05:06:10;99009.38;;;7.81;69.63
19526;BME280;9907;42.676;26.348;2023-02-19T05:08:39;99010.47;;;7.56;71.03
19526;BME280;9907;42.676;26.348;2023-02-19T05:11:09;99001.34;;;7.25;72.75
19526;BME280;9907;42.676;26.348;2023-02-19T05:13:36;99019.75;;;7.62;71.83
19526;BME280;9907;42.676;26.348;2023-02-19T05:16:04;99020.00;;;7.59;71.47
19526;BME280;9907;42.676;26.348;2023-02-19T05:18:31;99026.84;;;7.50;71.85
19526;BME280;9907;42.676;26.348;2023-02-19T05:20:58;99035.38;;;7.77;71.36
19526;BME280;9907;42.676;26.348;2023-02-19T05:23:27;99007.06;;;7.76;71.33
19526;BME280;9907;42.676;26.348;2023-02-19T05:25:52;99015.88;;;7.55;72.86
19526;BME280;9907;42.676;26.348;2023-02-19T05:28:19;99040.66;;;7.55;72.88
19526;BME280;9907;42.676;26.348;2023-02-19T05:30:48;99027.38;;;7.77;71.82
19526;BME280;9907;42.676;26.348;2023-02-19T05:33:15;99047.47;;;7.81;71.40
19526;BME280;9907;42.676;26.348;2023-02-19T05:35:45;99035.00;;;7.71;72.23
19526;BME280;9907;42.676;26.348;2023-02-19T05:38:12;99061.00;;;7.78;71.48
19526;BME280;9907;42.676;26.348;2023-02-19T05:40:38;99055.19;;;7.84;71.69
19526;BME280;9907;42.676;26.348;2023-02-19T05:43:05;99065.09;;;7.71;71.80
19526;BME280;9907;42.676;26.348;2023-02-19T05:45:31;99078.63;;;7.68;72.29
19526;BME280;9907;42.676;26.348;2023-02-19T05:47:57;99085.41;;;7.83;72.18
19526;BME280;9907;42.676;26.348;2023-02-19T05:50:23;99084.81;;;8.02;70.83
19526;BME280;9907;42.676;26.348;2023-02-19T05:52:48;99084.00;;;8.13;70.11
19526;BME280;9907;42.676;26.348;2023-02-19T05:55:14;99081.19;;;8.14;70.53
19526;BME280;9907;42.676;26.348;2023-02-19T05:57:45;99090.53;;;8.09;71.32
19526;BME280;9907;42.676;26.348;2023-02-19T06:00:15;99084.00;;;8.13;71.22
19526;BME280;9907;42.676;26.348;2023-02-19T06:02:41;99092.22;;;8.32;70.11
19526;BME280;9907;42.676;26.348;2023-02-19T06:05:07;99102.00;;;8.43;69.29
19526;BME280;9907;42.676;26.348;2023-02-19T06:07:36;99089.22;;;8.37;69.91
19526;BME280;9907;42.676;26.348;2023-02-19T06:10:05;99092.34;;;8.42;69.41
19526;BME280;9907;42.676;26.348;2023-02-19T06:12:31;99097.66;;;8.53;70.28
19526;BME280;9907;42.676;26.348;2023-02-19T06:14:56;99087.63;;;8.56;69.41
19526;BME280;9907;42.676;26.348;2023-02-19T06:17:24;99117.88;;;8.55;69.28
19526;BME280;9907;42.676;26.348;2023-02-19T06:19:50;99099.69;;;8.71;68.43
19526;BME280;9907;42.676;26.348;2023-02-19T06:22:16;99102.56;;;8.79;68.38
19526;BME280;9907;42.676;26.348;2023-02-19T06:24:42;99104.06;;;8.61;70.45
19526;BME280;9907;42.676;26.348;2023-02-19T06:27:08;99098.94;;;8.80;69.05
19526;BME280;9907;42.676;26.348;2023-02-19T06:29:34;99100.09;;;8.99;67.25
19526;BME280;9907;42.676;26.348;2023-02-19T06:32:03;99087.13;;;9.05;67.71
19526;BME280;9907;42.676;26.348;2023-02-19T06:34:32;99103.91;;;9.17;67.02
19526;BME280;9907;42.676;26.348;2023-02-19T06:36:58;99094.91;;;9.29;65.23
19526;BME280;9907;42.676;26.348;2023-02-19T06:39:27;99086.16;;;9.38;65.77
19526;BME280;9907;42.676;26.348;2023-02-19T06:41:56;99092.78;;;9.64;65.71
19526;BME280;9907;42.676;26.348;2023-02-19T06:44:22;99077.06;;;9.92;64.43
19526;BME280;9907;42.676;26.348;2023-02-19T06:46:48;99087.13;;;10.09;64.19
19526;BME280;9907;42.676;26.348;2023-02-19T06:49:16;99074.34;;;10.33;63.18
19526;BME280;9907;42.676;26.348;2023-02-19T06:51:42;99071.59;;;10.44;62.85
19526;BME280;9907;42.676;26.348;2023-02-19T06:54:07;99076.09;;;10.53;62.87
19526;BME280;9907;42.676;26.348;2023-02-19T06:56:35;99069.13;;;10.71;62.90
19526;BME280;9907;42.676;26.348;2023-02-19T06:59:03;99071.13;;;10.98;62.29
19526;BME280;9907;42.676;26.348;2023-02-19T07:01:31;99082.53;;;11.10;62.17
19526;BME280;9907;42.676;26.348;2023-02-19T07:03:57;99070.00;;;11.39;60.99
19526;BME280;9907;42.676;26.348;2023-02-19T07:06:24;99073.69;;;11.48;60.37
19526;BME280;9907;42.676;26.348;2023-02-19T07:08:51;99075.38;;;11.49;60.43
19526;BME280;9907;42.676;26.348;2023-02-19T07:11:18;99071.09;;;11.65;60.32
19526;BME280;9907;42.676;26.348;2023-02-19T07:13:44;99082.25;;;11.90;59.85
19526;BME280;9907;42.676;26.348;2023-02-19T07:16:11;99087.44;;;11.91;60.11
19526;BME280;9907;42.676;26.348;2023-02-19T07:18:39;99091.94;;;12.00;60.52
19526;BME280;9907;42.676;26.348;2023-02-19T07:21:12;99093.16;;;12.06;60.17
19526;BME280;9907;42.676;26.348;2023-02-19T07:23:39;99074.97;;;12.09;59.93
19526;BME280;9907;42.676;26.348;2023-02-19T07:26:11;99077.09;;;12.43;59.73
19526;BME280;9907;42.676;26.348;2023-02-19T07:28:40;99075.91;;;12.55;59.40
19526;BME280;9907;42.676;26.348;2023-02-19T07:31:09;99064.06;;;12.57;59.44
19526;BME280;9907;42.676;26.348;2023-02-19T07:33:43;99078.59;;;12.55;59.29
19526;BME280;9907;42.676;26.348;2023-02-19T07:36:13;99065.03;;;12.84;58.67
19526;BME280;9907;42.676;26.348;2023-02-19T07:38:39;99067.72;;;13.01;59.02
19526;BME280;9907;42.676;26.348;2023-02-19T07:41:05;99061.50;;;13.10;58.83
19526;BME280;9907;42.676;26.348;2023-02-19T07:43:35;99061.38;;;13.38;58.09
19526;BME280;9907;42.676;26.348;2023-02-19T07:46:12;99057.16;;;13.53;57.40
19526;BME280;9907;42.676;26.348;2023-02-19T07:48:38;99040.53;;;13.67;56.56
19526;BME280;9907;42.676;26.348;2023-02-19T07:51:11;99037.16;;;14.25;54.30
19526;BME280;9907;42.676;26.348;2023-02-19T07:53:37;99034.63;;;14.23;54.00
19526;BME280;9907;42.676;26.348;2023-02-19T07:56:09;99039.78;;;14.42;52.70
19526;BME280;9907;42.676;26.348;2023-02-19T07:58:35;99029.69;;;14.36;54.79
19526;BME280;9907;42.676;26.348;2023-02-19T08:01:18;99024.50;;;14.43;53.85
19526;BME280;9907;42.676;26.348;2023-02-19T08:04:04;99023.31;;;14.87;52.98
19526;BME280;9907;42.676;26.348;2023-02-19T08:06:29;99019.09;;;14.85;53.33
19526;BME280;9907;42.676;26.348;2023-02-19T08:08:55;99028.53;;;14.89;53.56
19526;BME280;9907;42.676;26.348;2023-02-19T08:11:22;99020.50;;;15.21;52.18
19526;BME280;9907;42.676;26.348;2023-02-19T08:14:06;99020.50;;;15.13;52.70
19526;BME280;9907;42.676;26.348;2023-02-19T08:16:31;99023.03;;;15.15;52.33
19526;BME280;9907;42.676;26.348;2023-02-19T08:18:59;99019.97;;;15.34;50.98
19526;BME280;9907;42.676;26.348;2023-02-19T08:21:25;99026.22;;;15.34;51.50
19526;BME280;9907;42.676;26.348;2023-02-19T08:23:51;99031.25;;;15.45;51.23
19526;BME280;9907;42.676;26.348;2023-02-19T08:26:17;99032.28;;;15.44;50.89
19526;BME280;9907;42.676;26.348;2023-02-19T08:28:42;99037.03;;;15.58;50.64
19526;BME280;9907;42.676;26.348;2023-02-19T08:31:11;99036.50;;;15.63;50.08
19526;BME280;9907;42.676;26.348;2023-02-19T08:33:37;99031.28;;;15.53;50.32
19526;BME280;9907;42.676;26.348;2023-02-19T08:36:06;99036.00;;;15.76;49.84
19526;BME280;9907;42.676;26.348;2023-02-19T08:38:33;99027.72;;;15.93;49.22
19526;BME280;9907;42.676;26.348;2023-02-19T08:41:10;99027.66;;;16.26;48.87
19526;BME280;9907;42.676;26.348;2023-02-19T08:43:36;99019.81;;;16.47;48.13
19526;BME280;9907;42.676;26.348;2023-02-19T08:46:03;99027.41;;;16.43;48.13
19526;BME280;9907;42.676;26.348;2023-02-19T08:48:29;99019.22;;;16.68;47.36
19526;BME280;9907;42.676;26.348;2023-02-19T08:50:56;99031.38;;;16.55;47.48
19526;BME280;9907;42.676;26.348;2023-02-19T08:53:25;99024.88;;;16.42;47.78
19526;BME280;9907;42.676;26.348;2023-02-19T08:55:51;99030.28;;;16.34;48.12
19526;BME280;9907;42.676;26.348;2023-02-19T08:58:17;99024.38;;;16.38;48.06
19526;BME280;9907;42.676;26.348;2023-02-19T09:00:44;99012.00;;;16.60;47.98
19526;BME280;9907;42.676;26.348;2023-02-19T09:03:09;99009.56;;;16.81;47.21
19526;BME280;9907;42.676;26.348;2023-02-19T09:05:35;98997.91;;;17.03;47.24
19526;BME280;9907;42.676;26.348;2023-02-19T09:08:01;98992.44;;;16.89;46.26
19526;BME280;9907;42.676;26.348;2023-02-19T09:10:27;98989.06;;;16.95;45.96
19526;BME280;9907;42.676;26.348;2023-02-19T09:12:52;98995.47;;;17.17;46.62
19526;BME280;9907;42.676;26.348;2023-02-19T09:15:17;98994.25;;;17.19;45.83
19526;BME280;9907;42.676;26.348;2023-02-19T09:17:43;98996.31;;;17.17;46.18
19526;BME280;9907;42.676;26.348;2023-02-19T09:20:09;98991.50;;;17.50;45.57
19526;BME280;9907;42.676;26.348;2023-02-19T09:22:35;98984.03;;;17.89;44.51
19526;BME280;9907;42.676;26.348;2023-02-19T09:25:03;98974.72;;;18.21;44.15
19526;BME280;9907;42.676;26.348;2023-02-19T09:27:32;98982.25;;;18.55;42.29
19526;BME280;9907;42.676;26.348;2023-02-19T09:29:57;98981.31;;;18.33;41.43
19526;BME280;9907;42.676;26.348;2023-02-19T09:32:23;98978.91;;;18.24;41.13
19526;BME280;9907;42.676;26.348;2023-02-19T09:34:48;98974.81;;;18.28;42.20
19526;BME280;9907;42.676;26.348;2023-02-19T09:37:14;98966.25;;;18.24;41.54
19526;BME280;9907;42.676;26.348;2023-02-19T09:39:39;98962.72;;;18.09;40.77
19526;BME280;9907;42.676;26.348;2023-02-19T09:42:18;98968.19;;;18.01;40.68
19526;BME280;9907;42.676;26.348;2023-02-19T09:44:47;98973.13;;;18.12;41.61
19526;BME280;9907;42.676;26.348;2023-02-19T09:49:45;98976.50;;;17.99;40.75
19526;BME280;9907;42.676;26.348;2023-02-19T09:52:23;98975.84;;;17.97;40.63
19526;BME280;9907;42.676;26.348;2023-02-19T09:54:50;98981.69;;;17.86;40.52
19526;BME280;9907;42.676;26.348;2023-02-19T09:57:20;98983.06;;;17.68;40.70
19526;BME280;9907;42.676;26.348;2023-02-19T10:00:05;98973.78;;;17.85;40.91
19526;BME280;9907;42.676;26.348;2023-02-19T10:02:36;98972.03;;;17.92;40.57
19526;BME280;9907;42.676;26.348;2023-02-19T10:05:02;98971.00;;;17.93;40.70
19526;BME280;9907;42.676;26.348;2023-02-19T10:07:38;98966.44;;;17.93;41.02
19526;BME280;9907;42.676;26.348;2023-02-19T10:12:53;98951.91;;;17.94;40.67
19526;BME280;9907;42.676;26.348;2023-02-19T10:15:37;98948.72;;;17.91;40.71
19526;BME280;9907;42.676;26.348;2023-02-19T10:18:04;98952.81;;;17.87;40.91
19526;BME280;9907;42.676;26.348;2023-02-19T10:20:31;98930.47;;;17.93;40.94
19526;BME280;9907;42.676;26.348;2023-02-19T10:23:00;98939.94;;;18.04;40.04
19526;BME280;9907;42.676;26.348;2023-02-19T10:25:27;98931.13;;;17.95;40.60
19526;BME280;9907;42.676;26.348;2023-02-19T10:27:53;98933.53;;;17.90;39.83
19526;BME280;9907;42.676;26.348;2023-02-19T10:30:24;98915.63;;;17.89;40.13
19526;BME280;9907;42.676;26.348;2023-02-19T10:33:12;98916.38;;;17.97;40.41
19526;BME280;9907;42.676;26.348;2023-02-19T10:36:02;98905.03;;;18.02;39.83
19526;BME280;9907;42.676;26.348;2023-02-19T10:38:39;98900.91;;;18.06;40.03
19526;BME280;9907;42.676;26.348;2023-02-19T10:41:18;98899.69;;;18.09;40.59
19526;BME280;9907;42.676;26.348;2023-02-19T10:44:06;98884.97;;;18.11;40.16
19526;BME280;9907;42.676;26.348;2023-02-19T10:46:40;98891.19;;;18.26;41.20
19526;BME280;9907;42.676;26.348;2023-02-19T10:49:39;98886.06;;;18.67;39.83
19526;BME280;9907;42.676;26.348;2023-02-19T10:52:16;98890.38;;;18.83;40.64
19526;BME280;9907;42.676;26.348;2023-02-19T10:54:49;98880.63;;;18.88;39.47
19526;BME280;9907;42.676;26.348;2023-02-19T10:59:58;98881.03;;;18.85;40.32
19526;BME280;9907;42.676;26.348;2023-02-19T11:02:26;98875.44;;;18.66;40.35
19526;BME280;9907;42.676;26.348;2023-02-19T11:05:22;98877.56;;;18.91;39.98
19526;BME280;9907;42.676;26.348;2023-02-19T11:07:51;98867.03;;;19.03;39.01
19526;BME280;9907;42.676;26.348;2023-02-19T11:12:54;98857.03;;;19.04;39.70
19526;BME280;9907;42.676;26.348;2023-02-19T11:15:34;98855.44;;;19.09;39.32
19526;BME280;9907;42.676;26.348;2023-02-19T11:20:48;98863.06;;;18.99;39.01
19526;BME280;9907;42.676;26.348;2023-02-19T11:23:17;98843.31;;;19.05;38.87
19526;BME280;9907;42.676;26.348;2023-02-19T11:25:48;98844.50;;;18.75;39.50
19526;BME280;9907;42.676;26.348;2023-02-19T11:31:23;98848.50;;;18.79;39.03
19526;BME280;9907;42.676;26.348;2023-02-19T11:33:58;98839.81;;;18.62;39.66
19526;BME280;9907;42.676;26.348;2023-02-19T11:36:35;98838.09;;;18.55;39.75
19526;BME280;9907;42.676;26.348;2023-02-19T11:55:24;98824.66;;;18.68;39.52
19526;BME280;9907;42.676;26.348;2023-02-19T12:15:23;98810.00;;;18.77;40.69
19526;BME280;9907;42.676;26.348;2023-02-19T12:31:32;98811.50;;;18.86;39.95
19526;BME280;9907;42.676;26.348;2023-02-19T12:39:22;98796.38;;;18.70;40.01
19526;BME280;9907;42.676;26.348;2023-02-19T12:44:46;98795.63;;;18.76;40.39
19526;BME280;9907;42.676;26.348;2023-02-19T12:47:23;98792.78;;;18.63;39.74
19526;BME280;9907;42.676;26.348;2023-02-19T12:50:07;98788.22;;;18.64;39.79
19526;BME280;9907;42.676;26.348;2023-02-19T12:52:42;98787.91;;;18.73;39.83
19526;BME280;9907;42.676;26.348;2023-02-19T12:55:26;98781.03;;;18.77;40.09
19526;BME280;9907;42.676;26.348;2023-02-19T12:57:54;98787.25;;;18.71;40.64
19526;BME280;9907;42.676;26.348;2023-02-19T13:00:48;98792.53;;;18.79;39.82
19526;BME280;9907;42.676;26.348;2023-02-19T13:03:27;98794.34;;;18.72;40.09
19526;BME280;9907;42.676;26.348;2023-02-19T13:06:08;98793.06;;;18.68;40.32
19526;BME280;9907;42.676;26.348;2023-02-19T13:08:51;98793.09;;;18.75;40.14
19526;BME280;9907;42.676;26.348;2023-02-19T13:11:43;98786.28;;;18.79;40.78
19526;BME280;9907;42.676;26.348;2023-02-19T13:14:29;98783.13;;;18.75;40.11
19526;BME280;9907;42.676;26.348;2023-02-19T13:17:05;98789.78;;;18.73;40.60
19526;BME280;9907;42.676;26.348;2023-02-19T13:19:35;98774.59;;;18.78;40.64
19526;BME280;9907;42.676;26.348;2023-02-19T13:22:18;98771.91;;;18.78;40.48
19526;BME280;9907;42.676;26.348;2023-02-19T13:25:06;98775.84;;;18.76;40.34
19526;BME280;9907;42.676;26.348;2023-02-19T13:28:10;98780.88;;;18.58;39.89
19526;BME280;9907;42.676;26.348;2023-02-19T13:36:12;98775.97;;;18.46;40.79
19526;BME280;9907;42.676;26.348;2023-02-19T13:38:42;98757.03;;;18.46;41.30
19526;BME280;9907;42.676;26.348;2023-02-19T13:41:26;98760.19;;;18.50;40.87
19526;BME280;9907;42.676;26.348;2023-02-19T13:44:02;98764.13;;;18.47;40.99
19526;BME280;9907;42.676;26.348;2023-02-19T13:46:35;98764.72;;;18.43;42.00
19526;BME280;9907;42.676;26.348;2023-02-19T13:51:51;98765.91;;;18.40;41.81
19526;BME280;9907;42.676;26.348;2023-02-19T13:54:29;98778.81;;;18.38;41.76
19526;BME280;9907;42.676;26.348;2023-02-19T13:59:45;98764.38;;;18.31;42.00
19526;BME280;9907;42.676;26.348;2023-02-19T14:04:59;98766.81;;;18.26;41.97
19526;BME280;9907;42.676;26.348;2023-02-19T14:07:51;98767.19;;;18.23;41.81
19526;BME280;9907;42.676;26.348;2023-02-19T14:13:10;98758.47;;;18.21;41.66
19526;BME280;9907;42.676;26.348;2023-02-19T14:18:01;98755.94;;;18.20;41.98
19526;BME280;9907;42.676;26.348;2023-02-19T14:20:43;98758.00;;;18.18;41.64
19526;BME280;9907;42.676;26.348;2023-02-19T14:23:22;98755.88;;;18.13;42.62
19526;BME280;9907;42.676;26.348;2023-02-19T14:25:57;98753.81;;;18.15;42.22
19526;BME280;9907;42.676;26.348;2023-02-19T14:28:27;98759.22;;;18.15;41.78
19526;BME280;9907;42.676;26.348;2023-02-19T14:33:50;98756.50;;;18.15;41.99
19526;BME280;9907;42.676;26.348;2023-02-19T14:38:51;98760.78;;;18.03;42.73
19526;BME280;9907;42.676;26.348;2023-02-19T14:41:17;98760.50;;;17.98;42.24
19526;BME280;9907;42.676;26.348;2023-02-19T14:43:47;98763.19;;;17.98;42.23
19526;BME280;9907;42.676;26.348;2023-02-19T14:48:49;98755.66;;;17.93;42.90
19526;BME280;9907;42.676;26.348;2023-02-19T14:51:34;98755.59;;;17.87;42.82
19526;BME280;9907;42.676;26.348;2023-02-19T14:54:48;98751.19;;;17.86;43.22
19526;BME280;9907;42.676;26.348;2023-02-19T14:56:50;98751.13;;;17.79;42.84
19526;BME280;9907;42.676;26.348;2023-02-19T14:59:30;98743.34;;;17.70;43.31
19526;BME280;9907;42.676;26.348;2023-02-19T15:02:16;98746.69;;;17.72;43.06
19526;BME280;9907;42.676;26.348;2023-02-19T15:04:42;98750.78;;;17.68;43.89
19526;BME280;9907;42.676;26.348;2023-02-19T15:07:14;98755.56;;;17.66;43.90
19526;BME280;9907;42.676;26.348;2023-02-19T15:09:45;98753.19;;;17.63;43.68
19526;BME280;9907;42.676;26.348;2023-02-19T15:12:15;98755.09;;;17.62;43.43
19526;BME280;9907;42.676;26.348;2023-02-19T15:14:44;98751.09;;;17.58;44.04
19526;BME280;9907;42.676;26.348;2023-02-19T15:17:16;98752.63;;;17.52;43.83
19526;BME280;9907;42.676;26.348;2023-02-19T15:19:44;98751.16;;;17.50;44.38
19526;BME280;9907;42.676;26.348;2023-02-19T15:22:19;98749.69;;;17.47;43.80
19526;BME280;9907;42.676;26.348;2023-02-19T15:24:45;98754.41;;;17.45;43.93
19526;BME280;9907;42.676;26.348;2023-02-19T15:27:20;98750.03;;;17.44;44.04
19526;BME280;9907;42.676;26.348;2023-02-19T15:29:48;98760.38;;;17.41;44.35
19526;BME280;9907;42.676;26.348;2023-02-19T15:32:21;98752.47;;;17.39;44.11
19526;BME280;9907;42.676;26.348;2023-02-19T15:34:59;98754.34;;;17.39;44.11
19526;BME280;9907;42.676;26.348;2023-02-19T15:37:29;98757.41;;;17.36;44.77
19526;BME280;9907;42.676;26.348;2023-02-19T15:39:57;98759.28;;;17.35;44.66